sensor_id;sensor_type;location;lat;lon;timestamp;P1;durP1;ratioP1;P2;durP2;ratioP2
22138;SDS011;25815;52.582;13.408;2023-03-01T00:02:03;33.33;;;18.75;;
22138;SDS011;25815;52.582;13.408;2023-03-01T00:04:29;32.97;;;18.88;;
22138;SDS011;25815;52.582;13.408;2023-03-01T00:06:55;33.97;;;18.67;;
22138;SDS011;25815;52.582;13.408;2023-03-01T00:09:21;34.47;;;19.45;;
22138;SDS011;25815;52.582;13.408;2023-03-01T00:11:47;33.92;;;19.05;;
22138;SDS011;25815;52.582;13.408;2023-03-01T00:14:13;38.03;;;19.58;;
22138;SDS011;25815;52.582;13.408;2023-03-01T00:16:41;35.47;;;18.05;;
22138;SDS011;25815;52.582;13.408;2023-03-01T00:19:09;35.97;;;18.15;;
22138;SDS011;25815;52.582;13.408;2023-03-01T00:21:36;37.00;;;18.85;;
22138;SDS011;25815;52.582;13.408;2023-03-01T00:24:03;34.42;;;17.63;;
22138;SDS011;25815;52.582;13.408;2023-03-01T00:26:29;35.75;;;19.45;;
22138;SDS011;25815;52.582;13.408;2023-03-01T00:28:56;42.58;;;19.30;;
22138;SDS011;25815;52.582;13.408;2023-03-01T00:31:23;34.17;;;18.73;;
22138;SDS011;25815;52.582;13.408;2023-03-01T00:33:52;37.17;;;18.45;;
22138;SDS011;25815;52.582;13.408;2023-03-01T00:36:21;32.10;;;18.15;;
22138;SDS011;25815;52.582;13.408;2023-03-01T00:38:47;31.52;;;17.38;;
22138;SDS011;25815;52.582;13.408;2023-03-01T00:41:14;32.35;;;17.90;;
22138;SDS011;25815;52.582;13.408;2023-03-01T00:43:40;36.05;;;17.35;;
22138;SDS011;25815;52.582;13.408;2023-03-01T00:46:10;32.00;;;17.50;;
22138;SDS011;25815;52.582;13.408;2023-03-01T00:48:37;34.97;;;18.08;;
22138;SDS011;25815;52.582;13.408;2023-03-01T00:53:37;31.35;;;16.88;;
22138;SDS011;25815;52.582;13.408;2023-03-01T00:56:04;30.73;;;17.00;;
22138;SDS011;25815;52.582;13.408;2023-03-01T00:58:30;28.27;;;16.15;;
22138;SDS011;25815;52.582;13.408;2023-03-01T01:00:56;29.70;;;16.08;;
22138;SDS011;25815;52.582;13.408;2023-03-01T01:03:22;30.27;;;15.88;;
22138;SDS011;25815;52.582;13.408;2023-03-01T01:05:50;27.63;;;15.38;;
22138;SDS011;25815;52.582;13.408;2023-03-01T01:08:16;30.10;;;15.50;;
22138;SDS011;25815;52.582;13.408;2023-03-01T01:10:43;30.30;;;16.27;;
22138;SDS011;25815;52.582;13.408;2023-03-01T01:13:09;27.45;;;14.65;;
22138;SDS011;25815;52.582;13.408;2023-03-01T01:15:35;25.00;;;14.38;;
22138;SDS011;25815;52.582;13.408;2023-03-01T01:18:01;28.13;;;14.73;;
22138;SDS011;25815;52.582;13.408;2023-03-01T01:20:27;32.78;;;16.27;;
22138;SDS011;25815;52.582;13.408;2023-03-01T01:22:53;32.65;;;15.82;;
22138;SDS011;25815;52.582;13.408;2023-03-01T01:25:19;27.42;;;15.30;;
22138;SDS011;25815;52.582;13.408;2023-03-01T01:27:45;32.78;;;16.25;;
22138;SDS011;25815;52.582;13.408;2023-03-01T01:30:11;29.25;;;16.20;;
22138;SDS011;25815;52.582;13.408;2023-03-01T01:32:38;30.52;;;15.45;;
22138;SDS011;25815;52.582;13.408;2023-03-01T01:35:04;31.60;;;15.68;;
22138;SDS011;25815;52.582;13.408;2023-03-01T01:37:30;28.25;;;15.80;;
22138;SDS011;25815;52.582;13.408;2023-03-01T01:40:00;33.92;;;16.05;;
22138;SDS011;25815;52.582;13.408;2023-03-01T01:42:27;30.95;;;16.63;;
22138;SDS011;25815;52.582;13.408;2023-03-01T01:47:38;35.17;;;16.48;;
22138;SDS011;25815;52.582;13.408;2023-03-01T01:50:04;28.80;;;15.07;;
22138;SDS011;25815;52.582;13.408;2023-03-01T01:52:32;27.40;;;14.52;;
22138;SDS011;25815;52.582;13.408;2023-03-01T01:57:30;25.20;;;13.32;;
22138;SDS011;25815;52.582;13.408;2023-03-01T01:59:59;24.42;;;14.13;;
22138;SDS011;25815;52.582;13.408;2023-03-01T02:02:26;30.33;;;14.40;;
22138;SDS011;25815;52.582;13.408;2023-03-01T02:04:54;26.20;;;14.63;;
22138;SDS011;25815;52.582;13.408;2023-03-01T02:07:23;24.67;;;14.32;;
22138;SDS011;25815;52.582;13.408;2023-03-01T02:09:51;27.48;;;14.68;;
22138;SDS011;25815;52.582;13.408;2023-03-01T02:12:19;27.65;;;14.48;;
22138;SDS011;25815;52.582;13.408;2023-03-01T02:14:46;29.33;;;14.80;;
22138;SDS011;25815;52.582;13.408;2023-03-01T02:17:12;32.47;;;15.55;;
22138;SDS011;25815;52.582;13.408;2023-03-01T02:22:24;32.25;;;16.17;;
22138;SDS011;25815;52.582;13.408;2023-03-01T02:24:55;28.23;;;15.48;;
22138;SDS011;25815;52.582;13.408;2023-03-01T02:27:24;32.15;;;15.82;;
22138;SDS011;25815;52.582;13.408;2023-03-01T02:29:51;28.05;;;14.07;;
22138;SDS011;25815;52.582;13.408;2023-03-01T02:32:17;26.95;;;14.38;;
22138;SDS011;25815;52.582;13.408;2023-03-01T02:34:50;22.60;;;12.52;;
22138;SDS011;25815;52.582;13.408;2023-03-01T02:37:16;28.58;;;12.75;;
22138;SDS011;25815;52.582;13.408;2023-03-01T02:39:49;26.95;;;13.75;;
22138;SDS011;25815;52.582;13.408;2023-03-01T02:42:19;29.65;;;14.40;;
22138;SDS011;25815;52.582;13.408;2023-03-01T02:47:12;24.67;;;13.18;;
22138;SDS011;25815;52.582;13.408;2023-03-01T02:49:38;25.75;;;14.00;;
22138;SDS011;25815;52.582;13.408;2023-03-01T02:54:36;24.05;;;14.43;;
22138;SDS011;25815;52.582;13.408;2023-03-01T02:57:05;26.42;;;14.88;;
22138;SDS011;25815;52.582;13.408;2023-03-01T02:59:32;27.55;;;14.88;;
22138;SDS011;25815;52.582;13.408;2023-03-01T03:02:04;26.83;;;13.98;;
22138;SDS011;25815;52.582;13.408;2023-03-01T03:04:30;27.83;;;13.20;;
22138;SDS011;25815;52.582;13.408;2023-03-01T03:06:55;28.98;;;14.13;;
22138;SDS011;25815;52.582;13.408;2023-03-01T03:09:21;25.17;;;13.98;;
22138;SDS011;25815;52.582;13.408;2023-03-01T03:11:47;27.25;;;13.40;;
22138;SDS011;25815;52.582;13.408;2023-03-01T03:14:14;27.10;;;13.50;;
22138;SDS011;25815;52.582;13.408;2023-03-01T03:16:44;27.20;;;14.80;;
22138;SDS011;25815;52.582;13.408;2023-03-01T03:19:11;25.67;;;13.75;;
22138;SDS011;25815;52.582;13.408;2023-03-01T03:21:37;23.48;;;13.57;;
22138;SDS011;25815;52.582;13.408;2023-03-01T03:24:03;24.38;;;12.95;;
22138;SDS011;25815;52.582;13.408;2023-03-01T03:26:30;22.38;;;12.15;;
22138;SDS011;25815;52.582;13.408;2023-03-01T03:28:56;26.52;;;13.73;;
22138;SDS011;25815;52.582;13.408;2023-03-01T03:31:22;25.48;;;12.93;;
22138;SDS011;25815;52.582;13.408;2023-03-01T03:33:48;27.83;;;13.80;;
22138;SDS011;25815;52.582;13.408;2023-03-01T03:36:15;24.80;;;12.82;;
22138;SDS011;25815;52.582;13.408;2023-03-01T03:38:42;26.15;;;13.25;;
22138;SDS011;25815;52.582;13.408;2023-03-01T03:41:08;27.85;;;13.68;;
22138;SDS011;25815;52.582;13.408;2023-03-01T03:43:36;25.65;;;13.63;;
22138;SDS011;25815;52.582;13.408;2023-03-01T03:46:02;26.20;;;13.27;;
22138;SDS011;25815;52.582;13.408;2023-03-01T03:48:41;29.42;;;13.05;;
22138;SDS011;25815;52.582;13.408;2023-03-01T03:51:09;24.50;;;12.90;;
22138;SDS011;25815;52.582;13.408;2023-03-01T03:53:36;26.13;;;12.98;;
22138;SDS011;25815;52.582;13.408;2023-03-01T03:56:02;26.95;;;12.65;;
22138;SDS011;25815;52.582;13.408;2023-03-01T03:58:28;29.42;;;13.85;;
22138;SDS011;25815;52.582;13.408;2023-03-01T04:00:55;22.70;;;11.93;;
22138;SDS011;25815;52.582;13.408;2023-03-01T04:03:22;22.38;;;11.45;;
22138;SDS011;25815;52.582;13.408;2023-03-01T04:05:48;23.52;;;12.35;;
22138;SDS011;25815;52.582;13.408;2023-03-01T04:08:15;26.17;;;11.85;;
22138;SDS011;25815;52.582;13.408;2023-03-01T04:10:43;22.13;;;12.45;;
22138;SDS011;25815;52.582;13.408;2023-03-01T04:13:11;21.83;;;11.73;;
22138;SDS011;25815;52.582;13.408;2023-03-01T04:15:37;22.00;;;12.30;;
22138;SDS011;25815;52.582;13.408;2023-03-01T04:18:03;21.48;;;12.38;;
22138;SDS011;25815;52.582;13.408;2023-03-01T04:20:31;22.02;;;11.73;;
22138;SDS011;25815;52.582;13.408;2023-03-01T04:25:24;20.95;;;12.13;;
22138;SDS011;25815;52.582;13.408;2023-03-01T04:27:50;21.95;;;11.63;;
22138;SDS011;25815;52.582;13.408;2023-03-01T04:30:16;24.52;;;12.73;;
22138;SDS011;25815;52.582;13.408;2023-03-01T04:32:42;22.85;;;12.85;;
22138;SDS011;25815;52.582;13.408;2023-03-01T04:35:08;22.75;;;12.43;;
22138;SDS011;25815;52.582;13.408;2023-03-01T04:37:34;20.63;;;11.70;;
22138;SDS011;25815;52.582;13.408;2023-03-01T04:40:01;22.10;;;11.93;;
22138;SDS011;25815;52.582;13.408;2023-03-01T04:42:37;22.85;;;12.15;;
22138;SDS011;25815;52.582;13.408;2023-03-01T04:45:03;21.10;;;11.45;;
22138;SDS011;25815;52.582;13.408;2023-03-01T04:47:37;22.17;;;10.95;;
22138;SDS011;25815;52.582;13.408;2023-03-01T04:50:03;21.70;;;11.63;;
22138;SDS011;25815;52.582;13.408;2023-03-01T04:52:29;21.67;;;11.55;;
22138;SDS011;25815;52.582;13.408;2023-03-01T04:54:56;20.05;;;10.75;;
22138;SDS011;25815;52.582;13.408;2023-03-01T04:57:22;23.98;;;11.23;;
22138;SDS011;25815;52.582;13.408;2023-03-01T04:59:48;18.48;;;10.75;;
22138;SDS011;25815;52.582;13.408;2023-03-01T05:02:14;21.70;;;11.13;;
22138;SDS011;25815;52.582;13.408;2023-03-01T05:04:40;25.67;;;11.68;;
22138;SDS011;25815;52.582;13.408;2023-03-01T05:07:06;22.48;;;11.60;;
22138;SDS011;25815;52.582;13.408;2023-03-01T05:09:32;21.77;;;11.65;;
22138;SDS011;25815;52.582;13.408;2023-03-01T05:11:58;21.77;;;11.15;;
22138;SDS011;25815;52.582;13.408;2023-03-01T05:14:24;21.38;;;11.30;;
22138;SDS011;25815;52.582;13.408;2023-03-01T05:16:49;21.13;;;10.43;;
22138;SDS011;25815;52.582;13.408;2023-03-01T05:19:15;23.58;;;12.07;;
22138;SDS011;25815;52.582;13.408;2023-03-01T05:21:47;22.13;;;11.35;;
22138;SDS011;25815;52.582;13.408;2023-03-01T05:24:29;21.92;;;11.27;;
22138;SDS011;25815;52.582;13.408;2023-03-01T05:26:55;22.45;;;11.27;;
22138;SDS011;25815;52.582;13.408;2023-03-01T05:29:21;21.55;;;10.85;;
22138;SDS011;25815;52.582;13.408;2023-03-01T05:31:53;24.60;;;11.23;;
22138;SDS011;25815;52.582;13.408;2023-03-01T05:34:22;23.92;;;10.93;;
22138;SDS011;25815;52.582;13.408;2023-03-01T05:36:48;22.55;;;11.48;;
22138;SDS011;25815;52.582;13.408;2023-03-01T05:39:17;21.00;;;11.15;;
22138;SDS011;25815;52.582;13.408;2023-03-01T05:41:43;23.80;;;11.10;;
22138;SDS011;25815;52.582;13.408;2023-03-01T05:44:09;19.83;;;10.63;;
22138;SDS011;25815;52.582;13.408;2023-03-01T05:46:37;19.45;;;10.80;;
22138;SDS011;25815;52.582;13.408;2023-03-01T05:49:03;19.20;;;10.20;;
22138;SDS011;25815;52.582;13.408;2023-03-01T05:51:29;18.70;;;10.93;;
22138;SDS011;25815;52.582;13.408;2023-03-01T05:53:55;23.02;;;10.77;;
22138;SDS011;25815;52.582;13.408;2023-03-01T05:56:21;19.60;;;10.88;;
22138;SDS011;25815;52.582;13.408;2023-03-01T05:58:47;21.50;;;11.75;;
22138;SDS011;25815;52.582;13.408;2023-03-01T06:01:14;21.10;;;11.25;;
22138;SDS011;25815;52.582;13.408;2023-03-01T06:03:40;24.30;;;11.40;;
22138;SDS011;25815;52.582;13.408;2023-03-01T06:06:06;22.70;;;11.27;;
22138;SDS011;25815;52.582;13.408;2023-03-01T06:08:32;24.10;;;11.85;;
22138;SDS011;25815;52.582;13.408;2023-03-01T06:10:58;27.00;;;11.43;;
22138;SDS011;25815;52.582;13.408;2023-03-01T06:13:24;20.42;;;10.48;;
22138;SDS011;25815;52.582;13.408;2023-03-01T06:15:50;19.27;;;10.35;;
22138;SDS011;25815;52.582;13.408;2023-03-01T06:18:16;23.55;;;11.40;;
22138;SDS011;25815;52.582;13.408;2023-03-01T06:20:42;20.98;;;11.85;;
22138;SDS011;25815;52.582;13.408;2023-03-01T06:23:08;21.83;;;11.25;;
22138;SDS011;25815;52.582;13.408;2023-03-01T06:25:34;21.63;;;11.27;;
22138;SDS011;25815;52.582;13.408;2023-03-01T06:28:00;22.42;;;11.50;;
22138;SDS011;25815;52.582;13.408;2023-03-01T06:30:27;25.13;;;11.80;;
22138;SDS011;25815;52.582;13.408;2023-03-01T06:32:53;19.35;;;11.07;;
22138;SDS011;25815;52.582;13.408;2023-03-01T06:35:25;22.58;;;11.98;;
22138;SDS011;25815;52.582;13.408;2023-03-01T06:37:54;22.40;;;11.40;;
22138;SDS011;25815;52.582;13.408;2023-03-01T06:40:20;18.17;;;10.80;;
22138;SDS011;25815;52.582;13.408;2023-03-01T06:42:50;25.10;;;12.00;;
22138;SDS011;25815;52.582;13.408;2023-03-01T06:45:17;22.45;;;11.93;;
22138;SDS011;25815;52.582;13.408;2023-03-01T06:47:43;24.88;;;11.63;;
22138;SDS011;25815;52.582;13.408;2023-03-01T06:50:09;30.45;;;12.73;;
22138;SDS011;25815;52.582;13.408;2023-03-01T06:52:35;23.45;;;11.18;;
22138;SDS011;25815;52.582;13.408;2023-03-01T06:55:01;22.95;;;12.13;;
22138;SDS011;25815;52.582;13.408;2023-03-01T06:57:27;24.27;;;11.30;;
22138;SDS011;25815;52.582;13.408;2023-03-01T06:59:53;26.08;;;11.27;;
22138;SDS011;25815;52.582;13.408;2023-03-01T07:02:19;22.85;;;11.88;;
22138;SDS011;25815;52.582;13.408;2023-03-01T07:04:45;24.10;;;12.10;;
22138;SDS011;25815;52.582;13.408;2023-03-01T07:07:11;24.15;;;12.57;;
22138;SDS011;25815;52.582;13.408;2023-03-01T07:09:37;23.50;;;11.73;;
22138;SDS011;25815;52.582;13.408;2023-03-01T07:12:03;22.65;;;11.98;;
22138;SDS011;25815;52.582;13.408;2023-03-01T07:14:29;23.50;;;12.35;;
22138;SDS011;25815;52.582;13.408;2023-03-01T07:16:55;23.08;;;12.50;;
22138;SDS011;25815;52.582;13.408;2023-03-01T07:19:21;25.48;;;12.88;;
22138;SDS011;25815;52.582;13.408;2023-03-01T07:21:47;21.70;;;12.63;;
22138;SDS011;25815;52.582;13.408;2023-03-01T07:24:13;21.35;;;11.73;;
22138;SDS011;25815;52.582;13.408;2023-03-01T07:26:39;23.05;;;12.35;;
22138;SDS011;25815;52.582;13.408;2023-03-01T07:29:06;29.63;;;13.13;;
22138;SDS011;25815;52.582;13.408;2023-03-01T07:31:32;32.10;;;14.60;;
22138;SDS011;25815;52.582;13.408;2023-03-01T07:33:58;25.00;;;13.90;;
22138;SDS011;25815;52.582;13.408;2023-03-01T07:36:24;23.80;;;13.43;;
22138;SDS011;25815;52.582;13.408;2023-03-01T07:38:50;32.95;;;13.52;;
22138;SDS011;25815;52.582;13.408;2023-03-01T07:41:16;22.27;;;12.68;;
22138;SDS011;25815;52.582;13.408;2023-03-01T07:43:42;22.75;;;12.98;;
22138;SDS011;25815;52.582;13.408;2023-03-01T07:46:08;25.50;;;12.98;;
22138;SDS011;25815;52.582;13.408;2023-03-01T07:48:34;25.05;;;13.25;;
22138;SDS011;25815;52.582;13.408;2023-03-01T07:51:01;25.13;;;12.82;;
22138;SDS011;25815;52.582;13.408;2023-03-01T07:53:27;25.58;;;13.73;;
22138;SDS011;25815;52.582;13.408;2023-03-01T07:56:00;26.00;;;13.98;;
22138;SDS011;25815;52.582;13.408;2023-03-01T07:58:26;21.25;;;12.35;;
22138;SDS011;25815;52.582;13.408;2023-03-01T08:00:52;27.17;;;12.68;;
22138;SDS011;25815;52.582;13.408;2023-03-01T08:03:18;21.75;;;11.73;;
22138;SDS011;25815;52.582;13.408;2023-03-01T08:05:44;22.02;;;11.88;;
22138;SDS011;25815;52.582;13.408;2023-03-01T08:08:10;22.00;;;12.48;;
22138;SDS011;25815;52.582;13.408;2023-03-01T08:10:36;21.20;;;11.85;;
22138;SDS011;25815;52.582;13.408;2023-03-01T08:13:02;28.90;;;13.35;;
22138;SDS011;25815;52.582;13.408;2023-03-01T08:15:28;21.60;;;12.18;;
22138;SDS011;25815;52.582;13.408;2023-03-01T08:17:54;23.80;;;12.38;;
22138;SDS011;25815;52.582;13.408;2023-03-01T08:20:20;24.73;;;11.13;;
22138;SDS011;25815;52.582;13.408;2023-03-01T08:22:46;19.90;;;11.43;;
22138;SDS011;25815;52.582;13.408;2023-03-01T08:25:11;17.60;;;9.93;;
22138;SDS011;25815;52.582;13.408;2023-03-01T08:27:37;19.40;;;11.05;;
22138;SDS011;25815;52.582;13.408;2023-03-01T08:30:03;18.60;;;10.30;;
22138;SDS011;25815;52.582;13.408;2023-03-01T08:32:32;17.10;;;9.93;;
22138;SDS011;25815;52.582;13.408;2023-03-01T08:35:00;20.55;;;9.43;;
22138;SDS011;25815;52.582;13.408;2023-03-01T08:37:26;16.85;;;9.38;;
22138;SDS011;25815;52.582;13.408;2023-03-01T08:39:55;18.42;;;8.55;;
22138;SDS011;25815;52.582;13.408;2023-03-01T08:42:21;14.07;;;8.10;;
22138;SDS011;25815;52.582;13.408;2023-03-01T08:44:47;14.18;;;7.65;;
22138;SDS011;25815;52.582;13.408;2023-03-01T08:47:13;15.07;;;7.20;;
22138;SDS011;25815;52.582;13.408;2023-03-01T08:49:39;16.42;;;7.47;;
22138;SDS011;25815;52.582;13.408;2023-03-01T08:52:05;16.38;;;7.10;;
22138;SDS011;25815;52.582;13.408;2023-03-01T08:54:31;15.50;;;7.55;;
22138;SDS011;25815;52.582;13.408;2023-03-01T08:56:57;20.58;;;7.00;;
22138;SDS011;25815;52.582;13.408;2023-03-01T08:59:24;11.57;;;6.35;;
22138;SDS011;25815;52.582;13.408;2023-03-01T09:01:51;11.18;;;5.65;;
22138;SDS011;25815;52.582;13.408;2023-03-01T09:04:17;10.63;;;6.07;;
22138;SDS011;25815;52.582;13.408;2023-03-01T09:06:43;7.72;;;5.32;;
22138;SDS011;25815;52.582;13.408;2023-03-01T09:09:16;10.20;;;5.07;;
22138;SDS011;25815;52.582;13.408;2023-03-01T09:11:43;8.82;;;4.60;;
22138;SDS011;25815;52.582;13.408;2023-03-01T09:14:10;10.40;;;4.60;;
22138;SDS011;25815;52.582;13.408;2023-03-01T09:16:36;7.55;;;3.40;;
22138;SDS011;25815;52.582;13.408;2023-03-01T09:19:03;8.70;;;3.83;;
22138;SDS011;25815;52.582;13.408;2023-03-01T09:21:29;5.90;;;3.25;;
22138;SDS011;25815;52.582;13.408;2023-03-01T09:23:55;7.72;;;3.13;;
22138;SDS011;25815;52.582;13.408;2023-03-01T09:26:22;9.45;;;5.05;;
22138;SDS011;25815;52.582;13.408;2023-03-01T09:28:49;8.57;;;2.70;;
22138;SDS011;25815;52.582;13.408;2023-03-01T09:31:15;6.15;;;2.60;;
22138;SDS011;25815;52.582;13.408;2023-03-01T09:33:42;7.65;;;2.92;;
22138;SDS011;25815;52.582;13.408;2023-03-01T09:36:11;5.90;;;2.92;;
22138;SDS011;25815;52.582;13.408;2023-03-01T09:38:37;7.57;;;3.30;;
22138;SDS011;25815;52.582;13.408;2023-03-01T09:41:09;7.28;;;2.83;;
22138;SDS011;25815;52.582;13.408;2023-03-01T09:43:46;7.22;;;3.20;;
22138;SDS011;25815;52.582;13.408;2023-03-01T09:46:13;6.72;;;2.90;;
22138;SDS011;25815;52.582;13.408;2023-03-01T09:51:12;6.80;;;3.38;;
22138;SDS011;25815;52.582;13.408;2023-03-01T09:53:40;10.80;;;3.08;;
22138;SDS011;25815;52.582;13.408;2023-03-01T09:56:17;7.55;;;3.13;;
22138;SDS011;25815;52.582;13.408;2023-03-01T10:01:18;6.43;;;2.65;;
22138;SDS011;25815;52.582;13.408;2023-03-01T10:06:21;6.57;;;2.30;;
22138;SDS011;25815;52.582;13.408;2023-03-01T10:08:58;5.28;;;2.72;;
22138;SDS011;25815;52.582;13.408;2023-03-01T10:11:26;8.07;;;3.00;;
22138;SDS011;25815;52.582;13.408;2023-03-01T10:14:07;9.38;;;4.28;;
22138;SDS011;25815;52.582;13.408;2023-03-01T10:22:04;6.63;;;2.67;;
22138;SDS011;25815;52.582;13.408;2023-03-01T10:24:32;6.57;;;3.15;;
22138;SDS011;25815;52.582;13.408;2023-03-01T10:27:05;5.68;;;2.72;;
22138;SDS011;25815;52.582;13.408;2023-03-01T10:29:41;5.53;;;2.78;;
22138;SDS011;25815;52.582;13.408;2023-03-01T10:32:09;6.93;;;3.17;;
22138;SDS011;25815;52.582;13.408;2023-03-01T10:34:36;5.53;;;2.90;;
22138;SDS011;25815;52.582;13.408;2023-03-01T10:37:09;4.28;;;2.63;;
22138;SDS011;25815;52.582;13.408;2023-03-01T10:39:35;6.75;;;3.00;;
22138;SDS011;25815;52.582;13.408;2023-03-01T10:42:05;4.47;;;2.60;;
22138;SDS011;25815;52.582;13.408;2023-03-01T10:47:00;8.07;;;2.50;;
22138;SDS011;25815;52.582;13.408;2023-03-01T10:49:26;8.40;;;3.00;;
22138;SDS011;25815;52.582;13.408;2023-03-01T10:51:53;5.65;;;2.72;;
22138;SDS011;25815;52.582;13.408;2023-03-01T10:54:26;7.20;;;3.00;;
22138;SDS011;25815;52.582;13.408;2023-03-01T10:56:53;9.00;;;2.63;;
22138;SDS011;25815;52.582;13.408;2023-03-01T11:02:16;3.67;;;2.03;;
22138;SDS011;25815;52.582;13.408;2023-03-01T11:04:55;8.05;;;2.63;;
22138;SDS011;25815;52.582;13.408;2023-03-01T11:09:47;4.72;;;2.28;;
22138;SDS011;25815;52.582;13.408;2023-03-01T11:12:14;4.72;;;2.20;;
22138;SDS011;25815;52.582;13.408;2023-03-01T11:14:50;6.47;;;2.42;;
22138;SDS011;25815;52.582;13.408;2023-03-01T11:17:18;5.13;;;2.35;;
22138;SDS011;25815;52.582;13.408;2023-03-01T11:22:35;6.30;;;2.30;;
22138;SDS011;25815;52.582;13.408;2023-03-01T11:25:02;5.05;;;2.28;;
22138;SDS011;25815;52.582;13.408;2023-03-01T11:27:29;4.68;;;2.38;;
22138;SDS011;25815;52.582;13.408;2023-03-01T11:32:23;5.30;;;2.50;;
22138;SDS011;25815;52.582;13.408;2023-03-01T11:34:54;5.03;;;2.20;;
22138;SDS011;25815;52.582;13.408;2023-03-01T11:37:31;11.68;;;2.38;;
22138;SDS011;25815;52.582;13.408;2023-03-01T11:42:42;5.13;;;2.20;;
22138;SDS011;25815;52.582;13.408;2023-03-01T11:45:11;5.38;;;2.22;;
22138;SDS011;25815;52.582;13.408;2023-03-01T11:50:14;6.45;;;2.30;;
22138;SDS011;25815;52.582;13.408;2023-03-01T11:52:54;6.28;;;2.00;;
22138;SDS011;25815;52.582;13.408;2023-03-01T11:55:26;4.10;;;1.67;;
22138;SDS011;25815;52.582;13.408;2023-03-01T11:58:14;3.17;;;1.80;;
22138;SDS011;25815;52.582;13.408;2023-03-01T12:13:47;4.03;;;2.08;;
22138;SDS011;25815;52.582;13.408;2023-03-01T12:19:03;5.25;;;1.98;;
22138;SDS011;25815;52.582;13.408;2023-03-01T12:26:48;6.28;;;2.50;;
22138;SDS011;25815;52.582;13.408;2023-03-01T12:29:20;8.52;;;2.45;;
22138;SDS011;25815;52.582;13.408;2023-03-01T12:44:19;4.35;;;1.95;;
22138;SDS011;25815;52.582;13.408;2023-03-01T12:49:26;5.10;;;1.88;;
22138;SDS011;25815;52.582;13.408;2023-03-01T12:51:56;2.72;;;1.60;;
22138;SDS011;25815;52.582;13.408;2023-03-01T12:54:29;5.07;;;1.70;;
22138;SDS011;25815;52.582;13.408;2023-03-01T12:56:57;3.88;;;1.70;;
22138;SDS011;25815;52.582;13.408;2023-03-01T12:59:27;5.60;;;1.60;;
22138;SDS011;25815;52.582;13.408;2023-03-01T13:04:53;4.10;;;1.67;;
22138;SDS011;25815;52.582;13.408;2023-03-01T13:07:41;4.25;;;1.25;;
22138;SDS011;25815;52.582;13.408;2023-03-01T13:10:31;4.05;;;1.30;;
22138;SDS011;25815;52.582;13.408;2023-03-01T13:13:11;2.53;;;1.55;;
22138;SDS011;25815;52.582;13.408;2023-03-01T13:15:38;7.07;;;1.75;;
22138;SDS011;25815;52.582;13.408;2023-03-01T13:18:26;3.53;;;1.73;;
22138;SDS011;25815;52.582;13.408;2023-03-01T13:20:56;5.28;;;1.52;;
22138;SDS011;25815;52.582;13.408;2023-03-01T13:26:08;3.17;;;1.67;;
22138;SDS011;25815;52.582;13.408;2023-03-01T13:33:48;3.95;;;1.35;;
22138;SDS011;25815;52.582;13.408;2023-03-01T13:36:48;2.15;;;1.27;;
22138;SDS011;25815;52.582;13.408;2023-03-01T13:41:52;4.53;;;1.40;;
22138;SDS011;25815;52.582;13.408;2023-03-01T13:44:20;2.20;;;1.50;;
22138;SDS011;25815;52.582;13.408;2023-03-01T13:46:47;2.55;;;1.58;;
22138;SDS011;25815;52.582;13.408;2023-03-01T13:49:17;3.55;;;1.20;;
22138;SDS011;25815;52.582;13.408;2023-03-01T13:51:46;3.45;;;1.35;;
22138;SDS011;25815;52.582;13.408;2023-03-01T13:54:12;4.78;;;1.38;;
22138;SDS011;25815;52.582;13.408;2023-03-01T13:56:40;4.68;;;1.75;;
22138;SDS011;25815;52.582;13.408;2023-03-01T13:59:16;2.17;;;1.30;;
22138;SDS011;25815;52.582;13.408;2023-03-01T14:01:42;4.07;;;1.33;;
22138;SDS011;25815;52.582;13.408;2023-03-01T14:04:29;2.50;;;1.30;;
22138;SDS011;25815;52.582;13.408;2023-03-01T14:07:35;2.45;;;1.42;;
22138;SDS011;25815;52.582;13.408;2023-03-01T14:09:56;3.22;;;1.58;;
22138;SDS011;25815;52.582;13.408;2023-03-01T14:14:59;7.82;;;2.55;;
22138;SDS011;25815;52.582;13.408;2023-03-01T14:19:55;3.28;;;1.42;;
22138;SDS011;25815;52.582;13.408;2023-03-01T14:22:22;4.13;;;1.60;;
22138;SDS011;25815;52.582;13.408;2023-03-01T14:24:55;4.22;;;1.67;;
22138;SDS011;25815;52.582;13.408;2023-03-01T14:27:22;3.25;;;1.75;;
22138;SDS011;25815;52.582;13.408;2023-03-01T14:29:59;5.60;;;1.83;;
22138;SDS011;25815;52.582;13.408;2023-03-01T14:32:30;4.00;;;1.63;;
22138;SDS011;25815;52.582;13.408;2023-03-01T14:34:56;3.58;;;1.30;;
22138;SDS011;25815;52.582;13.408;2023-03-01T14:37:27;2.45;;;1.35;;
22138;SDS011;25815;52.582;13.408;2023-03-01T14:39:54;2.03;;;1.38;;
22138;SDS011;25815;52.582;13.408;2023-03-01T14:42:21;4.63;;;1.73;;
22138;SDS011;25815;52.582;13.408;2023-03-01T14:44:49;7.53;;;2.05;;
22138;SDS011;25815;52.582;13.408;2023-03-01T14:47:20;2.78;;;1.58;;
22138;SDS011;25815;52.582;13.408;2023-03-01T14:49:50;10.40;;;2.25;;
22138;SDS011;25815;52.582;13.408;2023-03-01T14:52:20;3.85;;;1.65;;
22138;SDS011;25815;52.582;13.408;2023-03-01T14:54:50;4.47;;;1.60;;
22138;SDS011;25815;52.582;13.408;2023-03-01T14:57:18;3.00;;;1.40;;
22138;SDS011;25815;52.582;13.408;2023-03-01T14:59:46;4.18;;;1.63;;
22138;SDS011;25815;52.582;13.408;2023-03-01T15:02:14;4.22;;;1.75;;
22138;SDS011;25815;52.582;13.408;2023-03-01T15:04:48;5.43;;;1.65;;
22138;SDS011;25815;52.582;13.408;2023-03-01T15:07:14;3.78;;;1.50;;
22138;SDS011;25815;52.582;13.408;2023-03-01T15:09:41;4.18;;;1.52;;
22138;SDS011;25815;52.582;13.408;2023-03-01T15:14:52;2.97;;;1.45;;
22138;SDS011;25815;52.582;13.408;2023-03-01T15:17:30;4.18;;;1.63;;
22138;SDS011;25815;52.582;13.408;2023-03-01T15:19:56;5.55;;;1.60;;
22138;SDS011;25815;52.582;13.408;2023-03-01T15:22:23;2.42;;;1.40;;
22138;SDS011;25815;52.582;13.408;2023-03-01T15:24:50;2.38;;;1.60;;
22138;SDS011;25815;52.582;13.408;2023-03-01T15:27:18;3.95;;;1.58;;
22138;SDS011;25815;52.582;13.408;2023-03-01T15:29:54;3.60;;;1.48;;
22138;SDS011;25815;52.582;13.408;2023-03-01T15:34:50;3.78;;;1.90;;
22138;SDS011;25815;52.582;13.408;2023-03-01T15:40:00;3.47;;;1.90;;
22138;SDS011;25815;52.582;13.408;2023-03-01T15:47:57;5.80;;;2.35;;
22138;SDS011;25815;52.582;13.408;2023-03-01T15:52:49;6.00;;;2.05;;
22138;SDS011;25815;52.582;13.408;2023-03-01T15:55:16;4.95;;;2.20;;
22138;SDS011;25815;52.582;13.408;2023-03-01T15:57:43;6.22;;;2.50;;
22138;SDS011;25815;52.582;13.408;2023-03-01T16:00:10;5.35;;;2.00;;
22138;SDS011;25815;52.582;13.408;2023-03-01T16:02:38;7.25;;;2.60;;
22138;SDS011;25815;52.582;13.408;2023-03-01T16:05:04;5.07;;;2.20;;
22138;SDS011;25815;52.582;13.408;2023-03-01T16:07:30;9.95;;;2.67;;
22138;SDS011;25815;52.582;13.408;2023-03-01T16:09:56;5.20;;;2.28;;
22138;SDS011;25815;52.582;13.408;2023-03-01T16:12:22;4.88;;;2.50;;
22138;SDS011;25815;52.582;13.408;2023-03-01T16:14:49;5.80;;;2.55;;
22138;SDS011;25815;52.582;13.408;2023-03-01T16:17:15;4.32;;;2.35;;
22138;SDS011;25815;52.582;13.408;2023-03-01T16:19:41;5.93;;;2.20;;
22138;SDS011;25815;52.582;13.408;2023-03-01T16:22:08;7.32;;;2.55;;
22138;SDS011;25815;52.582;13.408;2023-03-01T16:24:34;8.93;;;3.75;;